createdAt,value
2018-07-31T00:01:17.419Z,69.00
2018-07-31T00:03:44.617Z,68.80
2018-07-31T00:06:18.134Z,69.40
2018-07-31T00:08:46.081Z,69.10
2018-07-31T00:11:13.295Z,69.10
2018-07-31T00:13:40.517Z,69.10
2018-07-31T00:16:07.734Z,69.50
2018-07-31T00:18:34.938Z,69.80
2018-07-31T00:21:02.151Z,70.00
2018-07-31T00:23:29.415Z,70.00
2018-07-31T00:25:56.618Z,69.90
2018-07-31T00:28:23.814Z,70.00
2018-07-31T00:30:50.999Z,70.00
2018-07-31T00:33:18.199Z,70.10
2018-07-31T00:35:45.383Z,69.80
2018-07-31T00:38:12.571Z,70.00
2018-07-31T00:40:39.907Z,70.10
2018-07-31T00:43:07.108Z,69.80
2018-07-31T00:45:34.294Z,70.40
2018-07-31T00:48:01.465Z,70.10
2018-07-31T00:50:28.647Z,70.20
2018-07-31T00:52:55.945Z,70.70
2018-07-31T00:55:23.143Z,70.60
2018-07-31T00:57:50.340Z,70.50
2018-07-31T01:00:17.551Z,70.60
2018-07-31T01:02:44.883Z,71.10
2018-07-31T01:05:12.064Z,71.00
2018-07-31T01:07:39.263Z,71.30
2018-07-31T01:10:06.457Z,71.50
2018-07-31T01:12:33.672Z,71.60
2018-07-31T01:15:00.879Z,71.90
2018-07-31T01:17:28.063Z,71.80
2018-07-31T01:19:55.244Z,71.80
2018-07-31T01:24:49.668Z,71.70
2018-07-31T01:29:44.047Z,71.90
2018-07-31T01:32:11.259Z,71.10
2018-07-31T01:34:38.443Z,71.20
2018-07-31T01:37:05.633Z,71.10
2018-07-31T01:39:32.835Z,71.10
2018-07-31T01:42:00.032Z,70.90
2018-07-31T01:44:27.251Z,71.10
2018-07-31T01:46:54.723Z,71.10
2018-07-31T01:49:21.920Z,71.00
2018-07-31T01:51:49.107Z,71.10
2018-07-31T01:54:16.299Z,71.80
2018-07-31T01:56:43.499Z,71.70
2018-07-31T02:01:37.920Z,72.10
2018-07-31T02:04:05.264Z,72.40
2018-07-31T02:06:32.463Z,72.10
2018-07-31T02:08:59.662Z,72.20
2018-07-31T02:11:26.864Z,72.50
2018-07-31T02:13:54.232Z,72.10
2018-07-31T02:16:21.829Z,72.30
2018-07-31T02:18:49.040Z,72.40
2018-07-31T02:21:16.224Z,72.40
2018-07-31T02:23:43.613Z,72.50
2018-07-31T02:26:10.846Z,72.80
2018-07-31T02:28:38.073Z,72.40
2018-07-31T02:31:05.419Z,73.20
2018-07-31T02:33:32.629Z,72.70
2018-07-31T02:35:59.828Z,73.00
2018-07-31T02:38:27.028Z,73.80
2018-07-31T02:40:54.240Z,73.30
2018-07-31T02:43:21.475Z,73.80
2018-07-31T02:45:48.698Z,73.50
2018-07-31T02:48:15.889Z,74.10
2018-07-31T02:50:43.092Z,74.10
2018-07-31T02:53:10.303Z,74.10
2018-07-31T02:55:37.489Z,73.70
2018-07-31T02:58:04.747Z,74.50
2018-07-31T03:00:31.957Z,75.20
2018-07-31T03:02:59.160Z,74.60
2018-07-31T03:05:26.367Z,75.00
2018-07-31T03:07:53.559Z,74.80
2018-07-31T03:10:20.758Z,75.20
2018-07-31T03:12:47.967Z,74.90
2018-07-31T03:15:15.170Z,75.40
2018-07-31T03:17:42.380Z,75.30
2018-07-31T03:20:09.595Z,76.50
2018-07-31T03:22:36.858Z,77.80
2018-07-31T03:25:04.498Z,78.00
2018-07-31T03:29:58.925Z,77.70
2018-07-31T03:32:26.121Z,78.70
2018-07-31T03:34:53.871Z,78.40
2018-07-31T03:37:21.107Z,78.50
2018-07-31T03:39:48.392Z,79.30
2018-07-31T03:42:15.596Z,79.30
2018-07-31T03:44:42.799Z,80.10
2018-07-31T03:47:10.474Z,79.70
2018-07-31T03:49:37.940Z,80.10
2018-07-31T03:52:05.410Z,81.90
2018-07-31T03:54:32.592Z,81.70
2018-07-31T03:56:59.828Z,82.70
2018-07-31T03:59:27.044Z,83.50
2018-07-31T04:01:54.259Z,83.80
2018-07-31T04:04:21.500Z,84.30
2018-07-31T04:07:03.639Z,84.20
2018-07-31T04:09:31.559Z,84.90
2018-07-31T04:11:58.780Z,85.00
2018-07-31T04:14:25.972Z,85.60
2018-07-31T04:16:53.214Z,86.30
2018-07-31T04:19:20.375Z,87.00
2018-07-31T04:21:47.584Z,87.70
2018-07-31T04:24:15.015Z,88.10
2018-07-31T04:26:42.235Z,88.50
2018-07-31T04:29:09.438Z,90.10
2018-07-31T04:31:36.658Z,90.10
2018-07-31T04:34:03.857Z,90.50
2018-07-31T04:36:31.073Z,90.60
2018-07-31T04:38:58.279Z,91.50
2018-07-31T04:41:25.512Z,92.30
2018-07-31T04:43:52.705Z,92.40
2018-07-31T04:46:19.912Z,92.10
2018-07-31T04:48:47.111Z,91.40
2018-07-31T04:51:14.328Z,91.20
2018-07-31T04:53:41.525Z,90.70
2018-07-31T04:56:08.758Z,91.40
2018-07-31T04:58:35.952Z,89.70
2018-07-31T05:01:03.163Z,89.00
2018-07-31T05:03:30.363Z,88.20
2018-07-31T05:05:57.557Z,90.00
2018-07-31T05:08:24.750Z,88.40
2018-07-31T05:10:51.955Z,88.00
2018-07-31T05:13:19.167Z,88.30
2018-07-31T05:15:46.791Z,87.90
2018-07-31T05:18:14.057Z,87.60
2018-07-31T05:20:41.227Z,87.80
2018-07-31T05:23:08.424Z,88.50
2018-07-31T05:25:35.624Z,88.90
2018-07-31T05:28:02.868Z,89.10
2018-07-31T05:30:30.068Z,89.80
2018-07-31T05:32:57.325Z,89.90
2018-07-31T05:35:24.517Z,89.50
2018-07-31T05:37:51.722Z,89.30
2018-07-31T05:40:18.924Z,90.30
2018-07-31T05:42:46.228Z,90.10
2018-07-31T05:45:13.424Z,90.00
2018-07-31T05:47:40.642Z,90.10
2018-07-31T05:50:08.671Z,88.80
2018-07-31T05:52:36.045Z,87.20
2018-07-31T05:55:03.547Z,87.60
2018-07-31T05:57:30.829Z,89.50
2018-07-31T05:59:58.012Z,90.20
2018-07-31T06:02:25.221Z,89.40
2018-07-31T06:04:52.423Z,89.10
2018-07-31T06:07:19.639Z,90.00
2018-07-31T06:09:46.979Z,88.80
2018-07-31T06:12:14.176Z,89.90
2018-07-31T06:14:41.378Z,90.30
2018-07-31T06:17:08.588Z,89.50
2018-07-31T06:19:35.796Z,88.30
2018-07-31T06:22:03.031Z,88.20
2018-07-31T06:26:57.449Z,90.10
2018-07-31T06:31:51.858Z,89.00
2018-07-31T06:34:19.087Z,87.30
2018-07-31T06:36:46.328Z,88.60
2018-07-31T06:39:13.535Z,88.40
2018-07-31T06:41:40.719Z,89.70
2018-07-31T06:44:07.929Z,87.30
2018-07-31T06:46:35.452Z,88.70
2018-07-31T06:49:02.691Z,88.90
2018-07-31T06:51:29.897Z,89.40
2018-07-31T06:53:57.105Z,89.10
2018-07-31T06:56:24.296Z,89.40
2018-07-31T06:58:51.520Z,87.20
2018-07-31T07:01:18.711Z,84.60
2018-07-31T07:03:45.919Z,86.90
2018-07-31T07:06:13.572Z,85.60
2018-07-31T07:08:40.771Z,82.60
2018-07-31T07:11:07.996Z,77.60
2018-07-31T07:13:35.368Z,70.80
2018-07-31T07:16:02.724Z,69.70
2018-07-31T07:18:30.095Z,67.30
2018-07-31T07:20:57.320Z,64.10
2018-07-31T07:23:24.724Z,63.10
2018-07-31T07:25:51.928Z,62.60
2018-07-31T07:28:19.132Z,60.90
2018-07-31T07:30:46.342Z,61.10
2018-07-31T07:33:13.528Z,58.40
2018-07-31T07:35:40.772Z,57.80
2018-07-31T07:38:07.976Z,59.30
2018-07-31T07:40:35.173Z,59.80
2018-07-31T07:43:02.399Z,57.70
2018-07-31T07:45:29.619Z,57.40
2018-07-31T07:47:56.852Z,57.10
2018-07-31T07:50:24.058Z,56.00
2018-07-31T07:52:51.363Z,57.80
2018-07-31T07:55:18.535Z,57.40
2018-07-31T07:57:46.045Z,55.10
2018-07-31T08:00:13.268Z,54.90
2018-07-31T08:02:40.500Z,52.30
2018-07-31T08:05:08.091Z,51.70
2018-07-31T08:07:35.326Z,52.40
2018-07-31T08:10:02.564Z,50.30
2018-07-31T08:12:29.918Z,49.60
2018-07-31T08:14:57.399Z,49.80
2018-07-31T08:17:24.611Z,49.40
2018-07-31T08:19:51.811Z,49.00
2018-07-31T08:22:19.004Z,48.80
2018-07-31T08:24:46.201Z,49.30
2018-07-31T08:27:13.419Z,51.10
2018-07-31T08:29:40.620Z,48.90
2018-07-31T08:32:07.901Z,47.60
2018-07-31T08:34:35.171Z,45.50
2018-07-31T08:37:02.323Z,44.80
2018-07-31T08:39:29.518Z,46.00
2018-07-31T08:41:56.725Z,47.90
2018-07-31T08:44:23.922Z,42.80
2018-07-31T08:46:51.143Z,42.10
2018-07-31T08:49:18.364Z,47.00
2018-07-31T08:51:45.554Z,46.00
2018-07-31T08:54:12.763Z,44.80
2018-07-31T08:56:39.980Z,47.00
2018-07-31T08:59:07.159Z,44.80
2018-07-31T09:01:34.371Z,46.50
2018-07-31T09:04:01.604Z,46.20
2018-07-31T09:06:28.814Z,43.30
2018-07-31T09:08:56.084Z,43.00
2018-07-31T09:11:23.192Z,42.10
2018-07-31T09:13:50.376Z,46.70
2018-07-31T09:16:17.556Z,44.60
2018-07-31T09:18:44.794Z,45.50
2018-07-31T09:21:11.964Z,44.90
2018-07-31T09:23:39.163Z,44.40
2018-07-31T09:26:06.353Z,42.00
2018-07-31T09:28:33.528Z,42.80
2018-07-31T09:31:06.654Z,40.30
2018-07-31T09:33:33.695Z,40.40
2018-07-31T09:36:00.856Z,40.50
2018-07-31T09:38:28.020Z,42.00
2018-07-31T09:40:55.187Z,40.40
2018-07-31T09:43:22.339Z,39.80
2018-07-31T09:45:49.492Z,41.00
2018-07-31T09:48:16.816Z,41.20
2018-07-31T09:50:44.074Z,41.50
2018-07-31T09:53:12.183Z,40.80
2018-07-31T09:55:39.356Z,40.70
2018-07-31T09:58:06.530Z,40.60
2018-07-31T10:00:39.536Z,39.70
2018-07-31T10:03:06.737Z,39.70
2018-07-31T10:05:34.112Z,41.00
2018-07-31T10:08:01.279Z,40.40
2018-07-31T10:10:28.457Z,43.10
2018-07-31T10:12:55.623Z,40.20
2018-07-31T10:15:22.792Z,38.60
2018-07-31T10:17:50.066Z,41.20
2018-07-31T10:20:17.199Z,41.40
2018-07-31T10:22:44.419Z,39.20
2018-07-31T10:25:11.565Z,39.50
2018-07-31T10:27:38.964Z,39.00
2018-07-31T10:30:07.472Z,40.60
2018-07-31T10:32:34.644Z,40.20
2018-07-31T10:35:01.827Z,39.80
2018-07-31T10:37:29.050Z,42.00
2018-07-31T10:39:56.206Z,42.00
2018-07-31T10:42:23.382Z,40.30
2018-07-31T10:44:50.720Z,40.90
2018-07-31T10:47:17.884Z,41.00
2018-07-31T10:49:45.045Z,39.60
2018-07-31T10:52:13.011Z,37.40
2018-07-31T10:54:40.189Z,37.50
2018-07-31T10:57:07.362Z,37.60
2018-07-31T10:59:34.570Z,37.00
2018-07-31T11:02:01.740Z,36.80
2018-07-31T11:04:28.900Z,42.30
2018-07-31T11:06:56.071Z,36.70
2018-07-31T11:09:23.276Z,38.60
2018-07-31T11:11:50.463Z,40.70
2018-07-31T11:14:17.699Z,40.90
2018-07-31T11:16:44.905Z,38.00
2018-07-31T11:19:12.127Z,41.20
2018-07-31T11:21:39.355Z,39.00
2018-07-31T11:24:06.566Z,36.80
2018-07-31T11:26:33.771Z,40.50
2018-07-31T11:29:00.973Z,38.80
2018-07-31T11:31:28.267Z,40.00
2018-07-31T11:33:55.468Z,38.20
2018-07-31T11:36:22.682Z,38.00
2018-07-31T11:38:49.891Z,39.20
2018-07-31T11:41:17.090Z,39.50
2018-07-31T11:43:44.304Z,39.00
2018-07-31T11:46:11.504Z,37.70
2018-07-31T11:48:38.699Z,39.90
2018-07-31T11:51:05.952Z,39.40
2018-07-31T11:53:33.159Z,40.50
2018-07-31T11:56:00.358Z,41.40
2018-07-31T11:58:27.600Z,39.00
2018-07-31T12:00:54.801Z,38.60
2018-07-31T12:03:22.003Z,41.60
2018-07-31T12:05:49.344Z,40.80
2018-07-31T12:08:16.538Z,38.40
2018-07-31T12:10:43.759Z,39.80
2018-07-31T12:13:10.961Z,40.30
2018-07-31T12:15:38.164Z,39.60
2018-07-31T12:18:05.434Z,40.30
2018-07-31T12:20:32.638Z,40.90
2018-07-31T12:22:59.827Z,39.50
2018-07-31T12:25:27.023Z,37.80
2018-07-31T12:27:54.238Z,39.80
2018-07-31T12:30:21.455Z,39.00
2018-07-31T12:32:48.713Z,36.80
2018-07-31T12:35:15.880Z,37.80
2018-07-31T12:37:43.081Z,36.90
2018-07-31T12:40:10.287Z,38.90
2018-07-31T12:42:37.499Z,39.00
2018-07-31T12:45:04.723Z,38.40
2018-07-31T12:47:31.955Z,38.70
2018-07-31T12:49:59.196Z,38.70
2018-07-31T12:52:26.664Z,37.30
2018-07-31T12:54:53.932Z,37.60
2018-07-31T12:57:21.141Z,37.60
2018-07-31T12:59:48.356Z,39.30
2018-07-31T13:02:15.546Z,37.00
2018-07-31T13:04:42.771Z,37.80
2018-07-31T13:07:09.964Z,38.10
2018-07-31T13:09:37.184Z,37.70
2018-07-31T13:12:04.681Z,36.00
2018-07-31T13:14:32.156Z,36.40
2018-07-31T13:16:59.354Z,34.60
2018-07-31T13:19:26.545Z,36.80
2018-07-31T13:21:53.764Z,36.30
2018-07-31T13:24:20.963Z,37.50
2018-07-31T13:26:48.169Z,36.90
2018-07-31T13:31:42.583Z,37.50
2018-07-31T13:34:09.779Z,36.50
2018-07-31T13:36:36.989Z,36.40
2018-07-31T13:39:07.235Z,36.40
2018-07-31T13:41:34.465Z,38.00
2018-07-31T13:44:01.714Z,36.80
2018-07-31T13:46:28.863Z,37.40
2018-07-31T13:48:56.051Z,39.40
2018-07-31T13:51:23.288Z,38.10
2018-07-31T13:53:50.511Z,41.00
2018-07-31T13:56:17.729Z,39.40
2018-07-31T13:58:44.928Z,40.00
2018-07-31T14:01:12.144Z,38.50
2018-07-31T14:03:39.356Z,39.40
2018-07-31T14:06:06.594Z,40.10
2018-07-31T14:08:33.839Z,40.90
2018-07-31T14:11:01.037Z,41.40
2018-07-31T14:13:28.239Z,40.20
2018-07-31T14:18:22.677Z,40.60
2018-07-31T14:20:49.892Z,40.30
2018-07-31T14:23:17.087Z,39.90
2018-07-31T14:25:44.328Z,39.60
2018-07-31T14:28:11.549Z,38.90
2018-07-31T14:30:38.789Z,40.40
2018-07-31T14:33:05.816Z,40.40
2018-07-31T14:35:33.021Z,40.40
2018-07-31T14:38:00.224Z,39.80
2018-07-31T14:40:27.420Z,41.10
2018-07-31T14:42:54.669Z,40.20
2018-07-31T14:45:21.851Z,40.80
2018-07-31T14:47:49.039Z,40.70
2018-07-31T14:50:16.240Z,41.30
2018-07-31T14:52:43.431Z,40.40
2018-07-31T14:55:10.651Z,40.50
2018-07-31T14:57:37.895Z,41.60
2018-07-31T15:00:05.610Z,42.30
2018-07-31T15:02:32.910Z,41.10
2018-07-31T15:05:00.100Z,40.80
2018-07-31T15:07:27.318Z,40.70
2018-07-31T15:09:54.518Z,41.20
2018-07-31T15:14:48.985Z,40.20
2018-07-31T15:17:16.189Z,41.40
2018-07-31T15:19:43.403Z,41.00
2018-07-31T15:22:10.604Z,41.60
2018-07-31T15:24:37.827Z,39.80
2018-07-31T15:27:05.019Z,42.00
2018-07-31T15:29:32.237Z,41.70
2018-07-31T15:31:59.439Z,42.40
2018-07-31T15:34:26.635Z,41.70
2018-07-31T15:36:53.834Z,41.70
2018-07-31T15:39:21.047Z,41.30
2018-07-31T15:41:48.276Z,40.30
2018-07-31T15:44:15.489Z,41.10
2018-07-31T15:46:42.699Z,41.80
2018-07-31T15:49:09.907Z,42.20
2018-07-31T15:51:37.101Z,41.50
2018-07-31T15:54:04.392Z,41.60
2018-07-31T15:56:31.603Z,41.50
2018-07-31T15:58:58.814Z,41.30
2018-07-31T16:01:27.661Z,40.90
2018-07-31T16:03:54.877Z,41.00
2018-07-31T16:06:22.116Z,41.30
2018-07-31T16:08:49.336Z,41.30
2018-07-31T16:11:16.556Z,41.30
2018-07-31T16:13:43.756Z,42.00
2018-07-31T16:16:11.028Z,42.80
2018-07-31T16:18:38.256Z,42.50
2018-07-31T16:21:05.887Z,42.90
2018-07-31T16:23:33.145Z,42.40
2018-07-31T16:26:00.406Z,43.00
2018-07-31T16:28:27.597Z,43.60
2018-07-31T16:30:54.807Z,42.70
2018-07-31T16:33:22.012Z,44.80
2018-07-31T16:35:49.293Z,42.30
2018-07-31T16:38:16.527Z,43.20
2018-07-31T16:40:43.723Z,42.50
2018-07-31T16:43:10.943Z,42.80
2018-07-31T16:45:38.191Z,42.70
2018-07-31T16:48:05.468Z,42.20
2018-07-31T16:50:32.744Z,42.40
2018-07-31T16:55:27.271Z,44.10
2018-07-31T16:57:54.567Z,43.80
2018-07-31T17:00:21.804Z,44.20
2018-07-31T17:02:49.060Z,44.90
2018-07-31T17:05:16.322Z,43.50
2018-07-31T17:07:43.776Z,44.20
2018-07-31T17:10:11.255Z,43.90
2018-07-31T17:12:38.672Z,43.50
2018-07-31T17:15:06.339Z,45.00
2018-07-31T17:17:33.582Z,44.60
2018-07-31T17:20:00.916Z,44.70
2018-07-31T17:22:28.148Z,45.40
2018-07-31T17:24:55.452Z,45.70
2018-07-31T17:27:22.755Z,45.20
2018-07-31T17:29:49.991Z,45.50
2018-07-31T17:32:17.207Z,46.10
2018-07-31T17:34:44.411Z,46.80
2018-07-31T17:37:11.651Z,46.80
2018-07-31T17:39:38.959Z,47.20
2018-07-31T17:42:06.236Z,48.00
2018-07-31T17:44:33.470Z,48.90
2018-07-31T17:47:00.752Z,49.50
2018-07-31T17:49:28.077Z,49.80
2018-07-31T17:51:55.359Z,51.30
2018-07-31T17:54:22.577Z,51.40
2018-07-31T17:56:49.840Z,52.00
2018-07-31T17:59:17.368Z,52.60
2018-07-31T18:01:44.652Z,53.10
2018-07-31T18:04:11.952Z,53.80
2018-07-31T18:06:39.232Z,54.20
2018-07-31T18:09:07.655Z,54.40
2018-07-31T18:11:35.036Z,55.10
2018-07-31T18:14:02.452Z,54.90
2018-07-31T18:16:29.591Z,55.80
2018-07-31T18:18:56.909Z,55.60
2018-07-31T18:21:24.128Z,56.00
2018-07-31T18:23:51.490Z,56.90
2018-07-31T18:26:18.940Z,56.70
2018-07-31T18:28:46.243Z,56.50
2018-07-31T18:31:13.742Z,56.90
2018-07-31T18:33:40.995Z,57.10
2018-07-31T18:36:08.271Z,57.10
2018-07-31T18:38:35.571Z,57.40
2018-07-31T18:41:03.065Z,57.40
2018-07-31T18:43:30.359Z,57.80
2018-07-31T18:45:57.580Z,57.80
2018-07-31T18:48:24.957Z,58.30
2018-07-31T18:50:52.222Z,58.90
2018-07-31T18:53:19.482Z,58.40
2018-07-31T18:55:46.850Z,58.80
2018-07-31T18:58:14.162Z,58.90
2018-07-31T19:00:41.485Z,59.20
2018-07-31T19:03:08.900Z,59.40
2018-07-31T19:05:36.128Z,59.40
2018-07-31T19:08:03.630Z,59.90
2018-07-31T19:10:30.884Z,60.10
2018-07-31T19:12:58.186Z,60.10
2018-07-31T19:15:25.415Z,60.20
2018-07-31T19:17:52.653Z,61.30
2018-07-31T19:20:19.932Z,60.50
2018-07-31T19:22:47.232Z,61.30
2018-07-31T19:25:14.539Z,60.90
2018-07-31T19:27:41.882Z,60.90
2018-07-31T19:30:09.144Z,60.70
2018-07-31T19:35:03.801Z,60.80
2018-07-31T19:37:31.136Z,60.30
2018-07-31T19:39:58.356Z,60.80
2018-07-31T19:42:25.879Z,60.60
2018-07-31T19:47:20.331Z,60.30
2018-07-31T19:49:47.508Z,59.90
2018-07-31T19:52:14.802Z,59.90
2018-07-31T19:54:41.992Z,60.80
2018-07-31T19:59:36.951Z,60.00
2018-07-31T20:02:04.217Z,60.30
2018-07-31T20:04:31.428Z,60.60
2018-07-31T20:06:58.724Z,61.00
2018-07-31T20:09:27.217Z,61.00
2018-07-31T20:11:55.804Z,61.40
2018-07-31T20:14:23.575Z,61.30
2018-07-31T20:16:50.951Z,61.20
2018-07-31T20:19:18.412Z,61.40
2018-07-31T20:24:13.032Z,61.20
2018-07-31T20:26:40.383Z,61.50
2018-07-31T20:29:07.887Z,61.70
2018-07-31T20:31:35.094Z,62.20
2018-07-31T20:34:02.308Z,62.30
2018-07-31T20:36:29.538Z,62.10
2018-07-31T20:38:56.783Z,62.20
2018-07-31T20:41:23.993Z,62.20
2018-07-31T20:43:52.239Z,62.30
2018-07-31T20:46:19.430Z,62.50
2018-07-31T20:48:46.636Z,62.00
2018-07-31T20:51:13.865Z,62.50
2018-07-31T20:53:41.050Z,62.30
2018-07-31T20:56:08.241Z,62.70
2018-07-31T20:58:35.443Z,62.90
2018-07-31T21:01:02.684Z,63.60
2018-07-31T21:03:30.103Z,63.50
2018-07-31T21:05:57.324Z,63.00
2018-07-31T21:08:24.604Z,62.70
2018-07-31T21:10:51.818Z,62.60
2018-07-31T21:15:46.351Z,63.70
2018-07-31T21:18:13.706Z,63.70
2018-07-31T21:20:40.878Z,64.10
2018-07-31T21:25:35.679Z,64.70
2018-07-31T21:28:02.957Z,64.70
2018-07-31T21:30:30.185Z,65.00
2018-07-31T21:32:57.391Z,64.90
2018-07-31T21:35:24.675Z,64.40
2018-07-31T21:37:52.028Z,64.40
2018-07-31T21:40:19.234Z,64.20
2018-07-31T21:42:46.428Z,64.20
2018-07-31T21:45:13.638Z,64.80
2018-07-31T21:47:40.911Z,64.30
2018-07-31T21:50:08.083Z,64.20
2018-07-31T21:52:35.276Z,63.90
2018-07-31T21:55:02.557Z,63.90
2018-07-31T21:57:29.722Z,63.70
2018-07-31T21:59:56.926Z,62.50
2018-07-31T22:02:24.119Z,62.10
2018-07-31T22:04:51.344Z,61.10
2018-07-31T22:07:18.524Z,62.60
2018-07-31T22:09:45.870Z,62.30
2018-07-31T22:12:13.207Z,63.40
2018-07-31T22:14:40.779Z,64.50
2018-07-31T22:17:08.145Z,65.30
2018-07-31T22:19:35.412Z,65.30
2018-07-31T22:22:02.619Z,64.80
2018-07-31T22:24:29.840Z,64.50
2018-07-31T22:26:57.049Z,64.80
2018-07-31T22:29:24.239Z,64.30
2018-07-31T22:31:51.439Z,64.40
2018-07-31T22:34:18.635Z,64.20
2018-07-31T22:36:45.832Z,64.20
2018-07-31T22:39:13.044Z,64.80
2018-07-31T22:41:40.486Z,65.40
2018-07-31T22:44:07.671Z,66.00
2018-07-31T22:46:34.876Z,66.40
2018-07-31T22:49:02.269Z,66.00
2018-07-31T22:51:29.499Z,66.30
2018-07-31T22:53:56.709Z,66.60
2018-07-31T22:56:23.891Z,66.70
2018-07-31T22:58:51.701Z,66.90
2018-07-31T23:01:19.008Z,67.00
2018-07-31T23:03:46.221Z,66.90
2018-07-31T23:06:13.443Z,66.40
2018-07-31T23:08:40.643Z,66.20
2018-07-31T23:11:07.859Z,67.10
2018-07-31T23:16:02.284Z,67.70
2018-07-31T23:18:29.484Z,67.40
2018-07-31T23:20:56.747Z,67.80
2018-07-31T23:23:23.895Z,68.10
2018-07-31T23:28:18.296Z,68.10
2018-07-31T23:30:45.500Z,68.60
2018-07-31T23:33:12.702Z,68.60
2018-07-31T23:35:39.933Z,68.70
2018-07-31T23:38:07.143Z,68.60
2018-07-31T23:40:34.356Z,68.40
2018-07-31T23:43:01.560Z,68.80
2018-07-31T23:45:28.757Z,68.70
2018-07-31T23:47:55.951Z,69.00
2018-07-31T23:50:23.142Z,68.80
2018-07-31T23:52:50.356Z,68.80
2018-07-31T23:57:44.963Z,69.20
